Terminal Aerodrome Forecast
Issued by NWS

Home | Current Version | Previous Version | Text Only | Print | Product List | Glossary On
Versions: 1 2 3 4 5 6 7 8 9 10 11 12 13
000
FTUS45 KREV 201123
TAFRNO
TAF
KRNO 201123Z 2012/2112 20018G28KT 6SM -RA SCT015 BKN028 OVC040
      WS020/25045KT
     FM201700 20025G40KT 5SM RA BKN020 OVC028 WS015/25070KT
     FM210000 20020G35KT 4SM RA BKN012 OVC020 WS015/25070KT=

USA.gov is the U.S. government's official web portal to all federal, state and local government web resources and services.